Time;durP1;ratioP1;P1;durP2;ratioP2;P2;SDS_P1;SDS_P2;PMS_P1;PMS_P2;Temp;Humidity;BMP_temperature;BMP_pressure;BME280_temperature;BME280_humidity;BME280_pressure;Samples;Min_cycle;Max_cycle;Signal;HPM_P1;HPM_P2
2021/06/08 00:02:01;;;;;;;17.27;12.27;;;;;;;16.13;66.74;101168.81;8679517;34;20639;-74
2021/06/08 00:07:04;;;;;;;15.65;11.27;;;;;;;16.14;66.54;101168.66;8679703;34;20228;-74
2021/06/08 00:12:08;;;;;;;16.52;10.90;;;;;;;16.11;66.02;101160.81;8679759;34;20231;-74
2021/06/08 00:17:12;;;;;;;16.38;11.07;;;;;;;16.09;65.89;101170.09;8679064;34;20307;-74
2021/06/08 00:22:15;;;;;;;16.30;10.90;;;;;;;16.08;66.04;101160.25;8679504;34;20756;-73
2021/06/08 00:27:18;;;;;;;15.68;12.60;;;;;;;16.07;66.13;101164.84;8679830;34;20236;-74
2021/06/08 00:32:22;;;;;;;17.38;11.20;;;;;;;16.04;66.02;101158.81;8656886;34;20232;-74
2021/06/08 00:37:25;;;;;;;17.27;11.13;;;;;;;16.02;66.14;101158.97;8679519;34;20239;-74
2021/06/08 00:42:29;;;;;;;16.30;11.95;;;;;;;16.03;66.55;101155.25;8655293;34;20271;-74
2021/06/08 00:47:33;;;;;;;16.02;11.60;;;;;;;16.05;66.39;101149.72;8678995;34;20229;-74
2021/06/08 00:52:36;;;;;;;17.70;12.05;;;;;;;16.01;66.43;101156.41;8678380;34;21442;-73
2021/06/08 00:57:39;;;;;;;16.50;10.55;;;;;;;15.94;66.01;101156.09;8678174;34;20224;-73
2021/06/08 01:02:43;;;;;;;18.60;11.98;;;;;;;15.94;66.03;101164.25;8679103;34;20228;-74
2021/06/08 01:07:46;;;;;;;20.08;11.77;;;;;;;15.94;65.85;101156.09;8677903;34;20232;-74
2021/06/08 01:12:49;;;;;;;15.95;10.93;;;;;;;15.95;66.06;101151.53;8677665;34;20229;-73
2021/06/08 01:17:53;;;;;;;17.00;11.32;;;;;;;15.92;65.87;101153.53;8677666;34;20315;-74
2021/06/08 01:22:58;;;;;;;18.20;11.55;;;;;;;15.90;65.78;101150.09;8677667;34;20658;-74
2021/06/08 01:28:02;;;;;;;18.90;11.18;;;;;;;15.83;65.75;101150.81;8677810;34;20239;-74
2021/06/08 01:33:05;;;;;;;14.70;10.20;;;;;;;15.72;66.00;101148.25;8677462;34;20232;-74
2021/06/08 01:38:09;;;;;;;15.88;11.05;;;;;;;15.67;65.93;101149.50;8676979;34;20233;-74
2021/06/08 01:43:14;;;;;;;16.90;11.00;;;;;;;15.62;66.73;101143.63;8677329;34;20853;-74
2021/06/08 01:48:16;;;;;;;18.25;11.57;;;;;;;15.65;66.29;101147.91;8676991;34;20236;-73
2021/06/08 01:53:37;;;;;;;20.50;13.00;;;;;;;15.50;66.62;101135.78;8677338;34;20241;-74
2021/06/08 01:58:44;;;;;;;17.95;10.80;;;;;;;15.44;66.36;101143.47;8677018;34;20745;-74
2021/06/08 02:03:54;;;;;;;16.75;11.48;;;;;;;15.39;66.65;101143.00;8679360;34;20331;-74
2021/06/08 02:09:05;;;;;;;16.67;11.40;;;;;;;15.44;66.86;101151.59;8720222;33;20212;-74
2021/06/08 02:14:16;;;;;;;16.67;11.45;;;;;;;15.43;67.14;101144.44;8739234;33;20742;-74
2021/06/08 02:19:22;;;;;;;16.73;11.27;;;;;;;15.32;67.17;101146.38;8740059;33;20216;-74
2021/06/08 02:24:29;;;;;;;18.38;12.43;;;;;;;15.33;67.15;101148.06;8739089;33;20228;-74
2021/06/08 02:29:33;;;;;;;16.42;10.82;;;;;;;15.33;67.38;101151.66;8739299;33;20227;-74
2021/06/08 02:34:37;;;;;;;16.45;11.45;;;;;;;15.31;68.14;101152.78;8738934;33;20609;-74
2021/06/08 02:39:43;;;;;;;16.02;11.90;;;;;;;15.26;69.44;101153.19;8739406;33;20227;-73
2021/06/08 02:44:48;;;;;;;20.98;13.05;;;;;;;15.17;69.64;101167.53;8714313;33;20246;-74
2021/06/08 02:49:51;;;;;;;19.25;11.25;;;;;;;15.30;69.41;101170.00;8739549;33;20227;-74
2021/06/08 02:54:59;;;;;;;17.02;11.80;;;;;;;15.30;68.95;101167.28;8739085;33;20319;-74
2021/06/08 03:00:08;;;;;;;18.58;12.10;;;;;;;15.34;68.93;101166.03;8714542;33;20836;-74
2021/06/08 03:05:16;;;;;;;18.13;11.95;;;;;;;15.25;69.22;101163.16;8743541;33;20223;-74
2021/06/08 03:10:22;;;;;;;15.18;10.82;;;;;;;15.27;68.64;101163.84;8738473;33;20220;-74
2021/06/08 03:15:30;;;;;;;19.27;11.77;;;;;;;15.35;68.42;101165.06;8737862;33;20227;-73
2021/06/08 03:20:38;;;;;;;15.77;10.75;;;;;;;15.39;67.21;101166.53;8738248;33;20235;-74
2021/06/08 03:25:44;;;;;;;17.63;11.88;;;;;;;15.35;66.51;101163.22;8737614;33;20857;-74
2021/06/08 03:30:49;;;;;;;15.13;11.18;;;;;;;15.14;66.53;101170.50;8737830;33;20235;-73
2021/06/08 03:35:54;;;;;;;18.17;11.65;;;;;;;15.20;65.81;101165.41;8737449;33;20259;-74
2021/06/08 03:40:58;;;;;;;18.02;11.77;;;;;;;15.25;65.98;101165.00;8738481;33;20236;-73
2021/06/08 03:46:01;;;;;;;18.27;11.70;;;;;;;15.24;65.20;101156.00;8737650;33;20235;-73
2021/06/08 03:51:05;;;;;;;19.45;11.70;;;;;;;15.14;64.20;101157.84;8728424;33;20690;-73
2021/06/08 03:56:11;;;;;;;20.10;12.05;;;;;;;15.20;64.84;101162.72;8737370;33;20916;-73
2021/06/08 04:01:15;;;;;;;18.38;12.02;;;;;;;15.32;64.40;101154.50;8712670;33;21396;-74
2021/06/08 04:06:19;;;;;;;19.35;11.00;;;;;;;15.37;64.90;101155.81;8736774;33;21556;-73
2021/06/08 04:11:23;;;;;;;20.40;12.77;;;;;;;15.27;64.26;101161.16;8736864;33;20247;-75
2021/06/08 04:16:26;;;;;;;17.83;11.80;;;;;;;15.21;64.33;101161.69;8736508;33;20231;-74
2021/06/08 04:21:29;;;;;;;22.55;12.20;;;;;;;15.29;64.80;101163.75;8737179;33;20219;-75
2021/06/08 04:26:35;;;;;;;22.17;12.25;;;;;;;15.29;64.73;101160.19;8711543;33;20266;-74
2021/06/08 04:31:38;;;;;;;18.30;11.43;;;;;;;15.32;65.45;101165.31;8736843;33;20343;-75
2021/06/08 04:36:40;;;;;;;19.58;11.93;;;;;;;15.38;65.29;101154.81;8712621;33;20747;-75
2021/06/08 04:41:45;;;;;;;20.35;12.73;;;;;;;15.43;65.42;101166.09;8738054;33;20728;-75
2021/06/08 04:46:48;;;;;;;18.90;12.73;;;;;;;15.44;65.65;101164.25;8736323;33;20267;-75
2021/06/08 04:51:51;;;;;;;20.55;12.65;;;;;;;15.48;65.35;101165.69;8736484;33;20285;-75
2021/06/08 04:56:55;;;;;;;20.80;12.15;;;;;;;15.57;65.61;101162.16;8736077;33;20721;-75
2021/06/08 05:01:58;;;;;;;20.50;12.13;;;;;;;15.63;65.16;101176.97;8736642;33;20260;-73
2021/06/08 05:07:04;;;;;;;18.77;12.30;;;;;;;15.62;64.86;101172.56;8736074;33;20640;-74
2021/06/08 05:12:11;;;;;;;19.33;13.13;;;;;;;15.60;65.11;101174.56;8736539;33;20231;-74
2021/06/08 05:17:17;;;;;;;20.67;13.07;;;;;;;15.75;65.21;101170.47;8737412;33;20227;-74
2021/06/08 05:22:21;;;;;;;18.40;12.05;;;;;;;15.90;65.24;101169.06;8740553;33;20266;-74
2021/06/08 05:27:26;;;;;;;17.90;11.80;;;;;;;16.04;64.88;101170.50;8711863;33;20637;-74
2021/06/08 05:32:29;;;;;;;17.73;11.88;;;;;;;16.20;64.58;101177.22;8736293;33;20219;-74
2021/06/08 05:37:40;;;;;;;17.42;11.45;;;;;;;16.26;64.63;101179.41;8734533;33;20255;-74
2021/06/08 05:42:49;;;;;;;21.92;13.15;;;;;;;16.27;64.43;101179.28;8735632;33;20234;-74
2021/06/08 05:47:56;;;;;;;20.73;13.10;;;;;;;16.39;64.44;101185.41;8735165;33;20236;-75
2021/06/08 05:53:00;;;;;;;25.83;14.35;;;;;;;16.46;64.12;101178.41;8735371;33;20663;-75
2021/06/08 05:58:04;;;;;;;21.85;14.45;;;;;;;16.52;63.45;101185.13;8735386;33;20227;-75
2021/06/08 06:03:07;;;;;;;20.77;13.85;;;;;;;16.61;63.77;101188.81;8729476;33;20239;-74
2021/06/08 06:08:09;;;;;;;24.08;14.68;;;;;;;16.67;63.84;101196.38;8683407;33;20250;-74
2021/06/08 06:13:16;;;;;;;21.77;14.65;;;;;;;16.75;63.15;101189.22;8653595;33;20224;-73
2021/06/08 06:18:20;;;;;;;30.88;16.30;;;;;;;16.85;63.05;101194.63;8677206;34;21442;-74
2021/06/08 06:23:24;;;;;;;24.15;16.02;;;;;;;16.73;63.50;101193.94;8677039;34;20631;-73
2021/06/08 06:28:29;;;;;;;27.15;16.48;;;;;;;16.90;63.27;101189.63;8676966;34;20260;-73
2021/06/08 06:33:31;;;;;;;25.83;17.73;;;;;;;16.94;63.20;101193.75;8674194;34;20320;-73
2021/06/08 06:38:35;;;;;;;28.50;16.77;;;;;;;16.91;63.40;101187.78;8681415;34;20220;-73
2021/06/08 06:43:49;;;;;;;28.25;17.50;;;;;;;17.01;63.14;101191.31;8677004;34;20271;-74
2021/06/08 06:48:54;;;;;;;28.25;17.58;;;;;;;17.01;63.59;101194.88;8704454;33;20740;-73
2021/06/08 06:53:57;;;;;;;31.70;17.20;;;;;;;17.13;63.33;101197.44;8739229;33;20228;-74
2021/06/08 06:59:01;;;;;;;27.55;16.70;;;;;;;16.98;63.07;101194.34;8734610;33;21413;-74
2021/06/08 07:04:06;;;;;;;32.25;18.48;;;;;;;16.96;63.53;101197.19;8738545;33;20323;-74
2021/06/08 07:09:09;;;;;;;33.35;19.45;;;;;;;16.91;64.27;101212.19;8738534;33;20215;-74
2021/06/08 07:14:13;;;;;;;23.30;14.35;;;;;;;16.93;63.79;101215.63;8737424;33;20248;-73
2021/06/08 07:19:16;;;;;;;31.08;19.75;;;;;;;17.17;63.45;101207.88;8738227;33;20260;-73
2021/06/08 07:24:20;;;;;;;27.80;16.83;;;;;;;17.47;62.70;101217.63;8720117;33;20247;-74
2021/06/08 07:29:25;;;;;;;23.05;14.27;;;;;;;17.77;62.35;101215.63;8737731;33;20224;-73
2021/06/08 07:34:33;;;;;;;36.40;18.75;;;;;;;17.96;61.85;101200.19;8736846;33;20231;-73
2021/06/08 07:39:46;;;;;;;28.92;15.73;;;;;;;18.12;61.13;101216.72;8737844;33;20709;-73
2021/06/08 07:44:53;;;;;;;35.00;19.25;;;;;;;17.79;61.81;101218.19;8712595;33;20247;-73
2021/06/08 07:49:58;;;;;;;36.40;22.30;;;;;;;17.80;62.27;101211.72;8737766;33;20278;-73
2021/06/08 07:55:01;;;;;;;27.15;16.70;;;;;;;17.84;62.12;101218.59;8737568;33;21487;-73
2021/06/08 08:00:08;;;;;;;36.55;20.90;;;;;;;17.85;62.34;101221.19;8736851;33;20220;-73
2021/06/08 08:05:17;;;;;;;39.75;23.00;;;;;;;17.95;61.97;101223.81;8737025;33;20732;-72
2021/06/08 08:10:22;;;;;;;38.70;22.75;;;;;;;17.97;61.53;101223.69;8738281;33;20234;-72
2021/06/08 08:15:26;;;;;;;43.50;24.95;;;;;;;17.72;62.39;101225.22;8737171;33;20728;-72
2021/06/08 08:20:43;;;;;;;39.40;22.75;;;;;;;17.76;62.78;101226.66;8737349;33;20771;-72
2021/06/08 08:25:46;;;;;;;38.72;23.45;;;;;;;17.97;62.43;101232.72;8736500;33;20242;-72
2021/06/08 08:30:50;;;;;;;40.63;24.38;;;;;;;18.13;62.25;101235.63;8735811;33;20246;-72
2021/06/08 08:35:52;;;;;;;38.13;23.00;;;;;;;18.36;61.76;101233.28;8704987;33;20231;-72
2021/06/08 08:40:57;;;;;;;43.63;25.02;;;;;;;18.58;60.86;101240.13;8737782;33;20228;-72
2021/06/08 08:46:19;;;;;;;43.55;24.63;;;;;;;18.48;60.80;101233.91;8737547;33;20322;-72
2021/06/08 08:51:24;;;;;;;42.83;23.48;;;;;;;;;;8736599;33;20220;-71
2021/06/08 08:56:32;;;;;;;39.47;22.52;;;;;;;18.26;61.73;101242.53;8736096;33;20277;-72
2021/06/08 09:01:40;;;;;;;37.38;22.85;;;;;;;18.55;61.68;101240.44;8711584;33;20232;-73
2021/06/08 09:06:43;;;;;;;39.33;23.85;;;;;;;18.59;61.26;101235.53;8735656;33;20238;-72
2021/06/08 09:11:46;;;;;;;37.33;21.83;;;;;;;18.61;60.07;101238.13;8735940;33;20270;-72
2021/06/08 09:16:50;;;;;;;39.17;22.20;;;;;;;18.91;59.87;101236.88;8711308;33;20342;-72
2021/06/08 09:21:56;;;;;;;38.80;22.25;;;;;;;19.30;58.94;101233.72;8735871;33;20238;-72
2021/06/08 09:27:01;;;;;;;39.85;21.27;;;;;;;18.82;60.08;101225.06;8736020;33;20228;-72
2021/06/08 09:32:29;;;;;;;42.88;21.67;;;;;;;19.01;59.63;101229.47;8736145;33;20231;-72
2021/06/08 09:37:35;;;;;;;38.35;22.98;;;;;;;19.34;58.73;101218.78;8735187;33;20228;-72
2021/06/08 09:42:38;;;;;;;35.53;21.48;;;;;;;19.17;59.47;101220.53;8735396;33;20227;-72
2021/06/08 09:47:58;;;;;;;41.88;23.38;;;;;;;19.38;59.09;101220.16;8734772;33;20338;-73
2021/06/08 09:53:20;;;;;;;38.50;22.80;;;;;;;19.16;59.39;101222.41;8734955;33;20239;-73
2021/06/08 09:58:25;;;;;;;43.35;23.50;;;;;;;18.85;59.54;101213.84;8734002;33;20228;-73
2021/06/08 10:03:36;;;;;;;41.45;22.60;;;;;;;18.75;60.46;101215.78;8737939;33;20236;-73
2021/06/08 10:08:50;;;;;;;40.47;24.00;;;;;;;19.18;60.02;101216.81;8676930;34;20315;-73
2021/06/08 10:13:59;;;;;;;40.63;23.30;;;;;;;19.54;59.15;101205.75;8681238;34;20245;-73
2021/06/08 10:19:05;;;;;;;44.63;23.15;;;;;;;19.28;58.74;101205.78;8687307;33;21004;-73
2021/06/08 10:24:11;;;;;;;47.53;24.65;;;;;;;18.39;62.08;101204.94;8680462;33;20938;-73
2021/06/08 10:29:14;;;;;;;40.60;24.48;;;;;;;19.13;59.60;101213.72;8682193;33;20228;-73
2021/06/08 10:34:22;;;;;;;43.63;23.95;;;;;;;19.92;57.33;101200.84;8681566;33;20229;-73
2021/06/08 10:39:27;;;;;;;43.50;23.70;;;;;;;19.20;59.39;101193.84;8681839;33;20857;-73
2021/06/08 10:44:31;;;;;;;41.13;23.42;;;;;;;20.28;57.29;101199.53;8680795;33;20254;-73
2021/06/08 10:49:37;;;;;;;37.20;21.75;;;;;;;20.06;56.89;101200.19;8680465;33;20221;-73
2021/06/08 10:54:42;;;;;;;43.33;25.33;;;;;;;20.72;55.57;101201.13;8680914;33;20278;-73
2021/06/08 10:59:47;;;;;;;43.85;25.52;;;;;;;21.07;55.43;101193.63;8682063;33;21745;-73
2021/06/08 11:04:55;;;;;;;42.08;23.85;;;;;;;21.66;53.79;101185.88;8680600;33;20317;-73
2021/06/08 11:09:58;;;;;;;43.83;23.83;;;;;;;22.19;52.14;101183.38;8680156;33;20224;-74
2021/06/08 11:15:01;;;;;;;40.05;22.52;;;;;;;22.44;51.98;101189.56;8680762;33;20233;-74
2021/06/08 11:20:26;;;;;;;41.40;24.88;;;;;;;22.30;52.13;101192.03;8681266;33;20228;-74
2021/06/08 11:25:47;;;;;;;34.97;22.15;;;;;;;22.18;52.27;101178.94;8680196;33;20737;-74
2021/06/08 11:31:00;;;;;;;37.28;23.10;;;;;;;22.87;51.46;101185.22;8680935;33;20229;-73
2021/06/08 11:36:32;;;;;;;39.15;22.30;;;;;;;23.70;49.25;101183.31;8680327;33;20213;-73
2021/06/08 11:41:54;;;;;;;33.97;21.83;;;;;;;23.39;49.97;101189.88;8680309;33;20221;-73
2021/06/08 11:46:59;;;;;;;35.63;20.67;;;;;;;22.99;50.60;101188.38;8680162;33;20233;-74
2021/06/08 11:52:12;;;;;;;34.35;21.67;;;;;;;22.81;51.30;101188.72;8679885;33;20236;-74
2021/06/08 11:57:36;;;;;;;35.20;21.58;;;;;;;22.25;52.93;101177.19;8680171;33;20225;-73
2021/06/08 12:02:43;;;;;;;35.35;21.45;;;;;;;22.14;53.03;101170.25;8680758;33;20309;-73
2021/06/08 12:07:51;;;;;;;38.80;23.15;;;;;;;22.03;53.18;101171.53;8679720;33;20268;-74
2021/06/08 12:12:54;;;;;;;34.63;21.55;;;;;;;21.98;54.01;101165.75;8679860;33;20243;-73
2021/06/08 12:18:04;;;;;;;38.10;22.80;;;;;;;22.23;52.88;101171.91;8679602;33;20260;-73
2021/06/08 12:23:10;;;;;;;36.63;23.20;;;;;;;22.10;53.60;101164.31;8679391;33;20228;-73
2021/06/08 12:28:16;;;;;;;39.70;24.27;;;;;;;21.77;54.28;101160.91;8640599;33;21467;-73
2021/06/08 12:33:22;;;;;;;38.60;23.20;;;;;;;21.57;55.54;101167.81;8647297;33;20442;-73
2021/06/08 12:38:26;;;;;;;42.13;21.92;;;;;;;21.91;54.71;101159.28;8678557;33;20223;-73
2021/06/08 12:43:29;;;;;;;35.08;22.50;;;;;;;22.04;54.66;101161.44;8678658;33;20236;-73
2021/06/08 12:48:32;;;;;;;39.97;23.42;;;;;;;22.70;54.01;101150.84;8678190;33;20266;-73
2021/06/08 12:53:38;;;;;;;37.15;22.08;;;;;;;23.28;51.27;101157.41;8678428;33;20260;-73
2021/06/08 12:58:41;;;;;;;38.88;22.80;;;;;;;24.51;48.75;101144.72;8678206;33;20273;-73
2021/06/08 13:03:48;;;;;;;38.35;23.23;;;;;;;25.74;45.64;101136.84;8676470;33;20224;-73
2021/06/08 13:08:53;;;;;;;33.22;21.42;;;;;;;25.19;46.27;101129.38;8674417;33;20228;-74
2021/06/08 13:13:57;;;;;;;31.17;20.67;;;;;;;24.02;48.69;101135.34;8677918;33;20371;-73
2021/06/08 13:19:19;;;;;;;37.47;23.08;;;;;;;23.34;50.15;101136.63;8676145;33;20776;-74
2021/06/08 13:24:27;;;;;;;38.22;22.35;;;;;;;23.09;51.15;101141.50;8710574;33;20967;-73
2021/06/08 13:29:29;;;;;;;33.97;22.08;;;;;;;22.64;51.25;101148.84;8733113;33;20258;-73
2021/06/08 13:34:33;;;;;;;34.97;22.13;;;;;;;22.04;52.81;101155.97;8735516;33;20224;-74
2021/06/08 13:39:39;;;;;;;36.05;21.33;;;;;;;21.69;54.51;101149.97;8737489;33;20724;-73
2021/06/08 13:44:57;;;;;;;41.58;22.63;;;;;;;21.33;55.58;101153.22;8735927;33;20223;-74
2021/06/08 13:50:00;;;;;;;36.70;23.20;;;;;;;21.21;55.40;101155.47;8735568;33;20361;-74
2021/06/08 13:55:12;;;;;;;42.25;23.73;;;;;;;21.04;55.99;101148.38;8735678;33;20291;-74
2021/06/08 14:00:23;;;;;;;39.72;23.52;;;;;;;21.09;56.25;101147.84;8739783;33;20223;-73
2021/06/08 14:05:28;;;;;;;50.40;25.73;;;;;;;21.15;56.44;101137.06;8740434;33;20231;-74
2021/06/08 14:10:33;;;;;;;34.65;21.77;;;;;;;21.30;55.45;101131.72;8740539;33;20235;-74
2021/06/08 14:15:48;;;;;;;38.28;21.95;;;;;;;21.45;54.71;101118.16;8734495;33;20740;-74
2021/06/08 14:20:51;;;;;;;36.10;21.73;;;;;;;21.63;54.43;101117.88;8709469;33;20231;-74
2021/06/08 14:25:55;;;;;;;34.55;21.63;;;;;;;21.50;54.24;101112.16;8737816;33;20855;-74
2021/06/08 14:30:59;;;;;;;39.90;23.52;;;;;;;21.55;55.13;101109.72;8738135;33;20291;-74
2021/06/08 14:36:07;;;;;;;41.05;24.52;;;;;;;21.64;54.71;101106.78;8739384;33;20706;-74
2021/06/08 14:41:11;;;;;;;39.35;22.85;;;;;;;22.14;54.50;101099.13;8740734;33;20222;-76
2021/06/08 14:46:14;;;;;;;36.63;21.42;;;;;;;22.29;52.64;101094.53;8739899;33;20230;-74
2021/06/08 14:51:17;;;;;;;40.42;22.40;;;;;;;22.49;51.79;101091.31;8740394;33;20755;-74
2021/06/08 14:56:21;;;;;;;33.53;21.52;;;;;;;22.63;51.48;101085.03;8739570;33;20242;-74
2021/06/08 15:01:24;;;;;;;33.22;20.75;;;;;;;22.30;51.49;101085.31;8736105;33;20236;-74
2021/06/08 15:06:27;;;;;;;29.13;19.23;;;;;;;22.12;52.77;101082.03;8740344;33;20333;-74
2021/06/08 15:11:32;;;;;;;26.20;17.98;;;;;;;22.16;52.17;101077.03;8745486;33;20239;-73
2021/06/08 15:16:34;;;;;;;26.10;18.08;;;;;;;22.43;51.58;101083.81;8695079;33;20217;-74
2021/06/08 15:21:38;;;;;;;30.15;18.40;;;;;;;22.62;50.16;101074.25;8682645;33;20757;-73
2021/06/08 15:26:42;;;;;;;31.20;19.70;;;;;;;22.50;50.96;101071.13;8713392;33;20319;-73
2021/06/08 15:31:44;;;;;;;26.45;17.83;;;;;;;22.15;51.04;101064.41;8710627;33;20298;-73
2021/06/08 15:36:47;;;;;;;30.77;18.10;;;;;;;22.89;51.10;101073.59;8734637;33;20270;-74
2021/06/08 15:41:51;;;;;;;27.48;18.58;;;;;;;24.06;48.31;101056.25;8735879;33;20228;-73
2021/06/08 15:46:54;;;;;;;28.90;17.95;;;;;;;24.60;47.19;101054.78;8738108;33;20238;-74
2021/06/08 15:51:57;;;;;;;28.20;18.35;;;;;;;25.19;45.67;101046.91;8738454;33;20239;-74
2021/06/08 15:57:01;;;;;;;26.70;17.80;;;;;;;25.67;43.80;101045.19;8738973;33;20220;-73
2021/06/08 16:02:04;;;;;;;30.85;18.45;;;;;;;24.32;46.48;101041.88;8738777;33;20220;-73
2021/06/08 16:07:07;;;;;;;23.00;16.27;;;;;;;23.74;47.72;101044.72;8737606;33;20246;-75
2021/06/08 16:12:13;;;;;;;23.60;16.30;;;;;;;23.28;49.74;101045.03;8738077;33;20247;-74
2021/06/08 16:17:15;;;;;;;27.23;18.02;;;;;;;23.78;49.13;101047.94;8737201;33;20262;-74
2021/06/08 16:22:19;;;;;;;28.48;18.67;;;;;;;23.47;49.30;101034.50;8737782;33;20396;-74
2021/06/08 16:27:23;;;;;;;26.15;17.73;;;;;;;24.35;48.74;101030.50;8738054;33;20235;-74
2021/06/08 16:32:25;;;;;;;23.80;16.73;;;;;;;27.27;42.35;101024.69;8703429;33;20340;-74
2021/06/08 16:37:28;;;;;;;25.77;17.83;;;;;;;26.97;41.75;101031.81;8737081;33;20844;-74
2021/06/08 16:42:33;;;;;;;26.58;17.83;;;;;;;27.25;41.60;101031.47;8737346;33;20272;-74
2021/06/08 16:47:36;;;;;;;27.08;17.60;;;;;;;28.66;38.86;101022.81;8737141;33;20236;-75
2021/06/08 16:58:09;;;;;;;21.58;15.60;;;;;;;29.25;37.62;101014.03;8672370;33;20713;-74
2021/06/08 17:03:12;;;;;;;22.83;16.52;;;;;;;29.31;38.68;101013.94;8738772;33;20369;-74
2021/06/08 17:08:15;;;;;;;19.35;15.38;;;;;;;29.13;38.31;101009.31;8737290;33;20758;-73
2021/06/08 17:13:19;;;;;;;20.85;14.93;;;;;;;29.54;38.07;101015.97;8736765;33;20855;-73
2021/06/08 17:18:22;;;;;;;23.75;16.20;;;;;;;30.24;36.07;101017.25;8736542;33;20720;-73
2021/06/08 17:23:25;;;;;;;22.98;15.75;;;;;;;29.63;36.58;101010.97;8736190;33;20228;-73
2021/06/08 17:28:29;;;;;;;23.27;15.63;;;;;;;29.90;36.62;101007.78;8733367;33;20643;-74
2021/06/08 17:33:32;;;;;;;18.83;14.68;;;;;;;28.06;40.58;101011.47;8736359;33;20266;-73
2021/06/08 17:38:35;;;;;;;20.90;15.05;;;;;;;26.05;44.58;101020.66;8711578;33;20234;-73
2021/06/08 17:43:48;;;;;;;18.05;14.27;;;;;;;24.41;49.20;101021.53;8702791;33;20243;-73
2021/06/08 17:48:53;;;;;;;18.95;14.15;;;;;;;23.17;51.48;101018.97;8701841;33;20227;-74
2021/06/08 17:53:56;;;;;;;24.25;17.63;;;;;;;22.55;53.43;101022.97;8735663;33;20259;-73
2021/06/08 17:59:00;;;;;;;25.30;16.73;;;;;;;21.93;54.92;101028.69;8711039;33;20235;-73
2021/06/08 18:04:03;;;;;;;26.15;16.83;;;;;;;21.86;55.16;101017.63;8735523;33;20232;-73
2021/06/08 18:09:07;;;;;;;27.33;18.48;;;;;;;21.84;54.63;101016.13;8735313;33;20378;-73
2021/06/08 18:14:11;;;;;;;22.67;16.77;;;;;;;21.58;56.60;101010.97;8735210;33;20216;-72
2021/06/08 18:19:20;;;;;;;27.02;17.40;;;;;;;21.32;58.63;101006.69;8735000;33;20340;-72
2021/06/08 18:24:23;;;;;;;26.65;17.10;;;;;;;20.94;58.72;101001.06;8730189;33;20224;-72
2021/06/08 18:29:27;;;;;;;24.02;16.88;;;;;;;20.89;59.79;101008.09;8730176;33;20787;-72
2021/06/08 18:34:30;;;;;;;26.52;17.65;;;;;;;20.64;59.85;101004.59;8729718;33;20224;-74
2021/06/08 18:39:33;;;;;;;26.10;18.50;;;;;;;20.37;60.61;101014.88;8735178;33;20741;-74
2021/06/08 18:44:38;;;;;;;26.48;18.27;;;;;;;20.21;62.01;101018.44;8737527;33;20239;-72
2021/06/08 18:49:41;;;;;;;24.27;16.90;;;;;;;20.14;62.10;101014.72;8739251;33;20263;-73
2021/06/08 18:54:43;;;;;;;28.10;18.60;;;;;;;20.00;62.12;101016.28;8714899;33;20263;-74
2021/06/08 18:59:48;;;;;;;27.35;18.45;;;;;;;19.76;62.35;101028.03;8682237;33;20675;-74
2021/06/08 19:04:51;;;;;;;29.30;18.58;;;;;;;19.85;62.56;101027.00;8719627;33;20250;-74
2021/06/08 19:09:54;;;;;;;31.48;21.98;;;;;;;19.81;62.46;101031.09;8739405;33;20232;-74
2021/06/08 19:15:01;;;;;;;30.27;20.08;;;;;;;19.74;62.72;101035.50;8743022;33;20266;-73
2021/06/08 19:20:06;;;;;;;27.20;18.83;;;;;;;19.59;63.16;101038.06;8739655;33;20228;-73
2021/06/08 19:25:11;;;;;;;24.02;16.98;;;;;;;19.32;63.84;101041.03;8738963;33;20293;-73
2021/06/08 19:30:17;;;;;;;22.92;17.08;;;;;;;19.20;64.12;101035.88;8739520;33;20285;-74
2021/06/08 19:35:19;;;;;;;26.80;17.83;;;;;;;19.12;64.40;101041.31;8738145;33;20227;-73
2021/06/08 19:40:23;;;;;;;28.25;18.40;;;;;;;19.14;64.30;101042.00;8737173;33;20329;-73
2021/06/08 19:45:27;;;;;;;31.52;19.25;;;;;;;19.31;63.85;101039.31;8737293;33;20226;-74
2021/06/08 19:50:30;;;;;;;29.52;18.77;;;;;;;19.34;64.38;101039.00;8738587;33;20739;-74
2021/06/08 19:55:33;;;;;;;26.42;17.20;;;;;;;19.14;64.95;101042.00;8736604;33;20239;-74
2021/06/08 20:00:37;;;;;;;33.55;19.88;;;;;;;19.17;64.54;101043.50;8739299;33;20716;-74
2021/06/08 20:05:40;;;;;;;34.05;20.67;;;;;;;19.20;63.87;101051.38;8743029;33;20743;-74
2021/06/08 20:10:42;;;;;;;31.85;20.35;;;;;;;19.24;63.82;101042.69;8739190;33;20958;-73
2021/06/08 20:15:47;;;;;;;31.42;20.10;;;;;;;19.31;63.43;101050.19;8737734;33;21455;-74
2021/06/08 20:20:49;;;;;;;31.77;19.75;;;;;;;19.17;64.17;101063.47;8713169;33;20234;-73
2021/06/08 20:25:52;;;;;;;32.47;19.58;;;;;;;19.13;64.28;101055.78;8737311;33;20736;-74
2021/06/08 20:30:56;;;;;;;29.88;18.55;;;;;;;18.96;64.50;101052.13;8737211;33;20236;-74
2021/06/08 20:35:58;;;;;;;27.65;18.42;;;;;;;19.04;64.89;101049.44;8736872;33;20725;-74
2021/06/08 20:41:01;;;;;;;27.33;18.88;;;;;;;19.02;64.43;101049.59;8736951;33;20290;-73
2021/06/08 20:46:07;;;;;;;29.42;19.25;;;;;;;19.11;64.69;101045.03;8737158;33;20227;-73
2021/06/08 20:51:10;;;;;;;26.85;17.75;;;;;;;19.01;65.68;101049.78;8736946;33;20235;-74
2021/06/08 20:56:13;;;;;;;30.70;19.08;;;;;;;18.85;66.37;101049.69;8736818;33;20228;-74
2021/06/08 21:01:18;;;;;;;30.73;18.55;;;;;;;18.86;66.90;101054.13;8736219;33;20220;-74
2021/06/08 21:06:20;;;;;;;27.42;18.40;;;;;;;18.85;66.94;101047.81;8735783;33;20219;-74
2021/06/08 21:11:23;;;;;;;35.05;21.38;;;;;;;18.85;66.73;101055.13;8735321;33;20239;-75
2021/06/08 21:16:27;;;;;;;35.47;20.17;;;;;;;18.83;66.83;101057.16;8735757;33;20374;-75
2021/06/08 21:21:30;;;;;;;34.92;20.73;;;;;;;18.88;66.45;101071.16;8736115;33;20220;-75
2021/06/08 21:26:33;;;;;;;31.83;20.88;;;;;;;18.83;66.10;101062.59;8721825;33;21417;-75
2021/06/08 21:31:37;;;;;;;33.05;20.40;;;;;;;18.83;66.29;101074.34;8708057;33;20235;-75
2021/06/08 21:36:40;;;;;;;36.67;23.45;;;;;;;18.73;66.49;101077.16;8699610;33;20875;-75
2021/06/08 21:41:44;;;;;;;35.47;22.05;;;;;;;18.70;66.66;101072.00;8678999;33;21013;-74
2021/06/08 21:46:48;;;;;;;38.95;22.27;;;;;;;18.65;66.81;101063.50;8678734;33;20887;-74
2021/06/08 21:51:51;;;;;;;35.88;22.25;;;;;;;18.50;67.59;101062.38;8677167;33;20237;-74
2021/06/08 21:56:54;;;;;;;33.08;20.73;;;;;;;18.40;67.39;101064.34;8678665;33;20698;-75
2021/06/08 22:01:58;;;;;;;32.03;20.48;;;;;;;18.37;67.58;101062.78;8678695;33;20240;-74
2021/06/08 22:07:01;;;;;;;38.13;25.27;;;;;;;18.13;67.92;101072.47;8678754;33;20232;-75
2021/06/08 22:12:04;;;;;;;33.67;20.17;;;;;;;18.06;68.64;101070.53;8677845;33;20303;-75
2021/06/08 22:17:09;;;;;;;33.97;20.55;;;;;;;18.19;68.44;101072.88;8677530;33;20275;-75
2021/06/08 22:22:12;;;;;;;32.58;20.38;;;;;;;18.22;68.56;101067.13;8682254;33;20240;-75
2021/06/08 22:27:15;;;;;;;32.70;19.98;;;;;;;18.21;68.76;101071.72;8681941;33;20331;-74
2021/06/08 22:32:19;;;;;;;36.55;20.80;;;;;;;18.13;68.81;101069.75;8683542;33;20317;-74
2021/06/08 22:37:23;;;;;;;33.72;21.45;;;;;;;18.03;69.13;101054.56;8682495;33;20221;-74
2021/06/08 22:42:26;;;;;;;31.25;20.75;;;;;;;17.93;69.28;101060.88;8682804;33;20740;-75
2021/06/08 22:47:30;;;;;;;34.50;22.10;;;;;;;17.95;69.52;101059.88;8682379;33;20308;-75
2021/06/08 22:52:32;;;;;;;36.67;23.40;;;;;;;17.79;70.18;101056.00;8681590;33;20808;-75
2021/06/08 22:57:35;;;;;;;36.72;23.38;;;;;;;17.91;70.12;101059.34;8681551;33;20275;-75
2021/06/08 23:02:40;;;;;;;38.42;25.08;;;;;;;17.89;69.96;101062.22;8681641;33;20259;-74
2021/06/08 23:07:44;;;;;;;36.85;21.65;;;;;;;17.90;70.23;101060.34;8681044;33;20310;-75
2021/06/08 23:12:48;;;;;;;33.97;22.92;;;;;;;17.79;70.38;101060.56;8681374;33;20239;-74